Time;durP1;ratioP1;P1;durP2;ratioP2;P2;SDS_P1;SDS_P2;PMS_P1;PMS_P2;Temp;Humidity;BMP_temperature;BMP_pressure;BME280_temperature;BME280_humidity;BME280_pressure;Samples;Min_cycle;Max_cycle;Signal;HPM_P1;HPM_P2
2022/01/09 00:00:59;;;;;;;12.45;5.45;;;;;;;0.19;96.44;98695.16;5039932;28;20033;-77
2022/01/09 00:03:24;;;;;;;10.60;5.50;;;;;;;0.13;96.48;98674.72;5036876;28;20033;-77
2022/01/09 00:05:49;;;;;;;11.00;5.53;;;;;;;0.23;96.76;98714.03;5043358;28;20037;-80
2022/01/09 00:08:15;;;;;;;17.60;5.47;;;;;;;0.26;96.73;98721.66;5023669;28;20041;-79
2022/01/09 00:10:46;;;;;;;10.53;4.07;;;;;;;0.28;96.66;98703.09;5029332;28;20359;-77
2022/01/09 00:13:12;;;;;;;8.77;4.60;;;;;;;0.24;96.73;98696.53;5022486;28;20038;-77
2022/01/09 00:15:37;;;;;;;11.90;6.03;;;;;;;0.28;97.09;98717.09;5015335;28;20046;-76
2022/01/09 00:18:03;;;;;;;11.80;5.43;;;;;;;0.27;97.16;98691.78;5018897;28;20308;-76
2022/01/09 00:20:28;;;;;;;11.38;5.35;;;;;;;0.19;96.97;98674.16;5018571;28;20042;-76
2022/01/09 00:22:53;;;;;;;9.07;4.63;;;;;;;0.29;96.86;98691.66;5018900;28;20045;-77
2022/01/09 00:25:22;;;;;;;10.00;4.27;;;;;;;0.19;96.87;98673.34;5018505;28;20030;-76
2022/01/09 00:27:48;;;;;;;9.55;4.68;;;;;;;0.37;96.85;98708.28;5017147;28;21165;-76
2022/01/09 00:30:17;;;;;;;11.57;5.53;;;;;;;0.34;96.84;98684.97;5015175;28;20397;-77
2022/01/09 00:32:42;;;;;;;8.73;4.28;;;;;;;0.29;96.87;98684.59;5018011;28;20033;-80
2022/01/09 00:35:09;;;;;;;10.98;4.95;;;;;;;0.31;97.02;98669.53;5020513;28;20033;-79
2022/01/09 00:37:35;;;;;;;10.50;4.40;;;;;;;0.36;97.06;98683.03;5027893;28;20029;-78
2022/01/09 00:40:00;;;;;;;8.52;4.10;;;;;;;0.37;97.05;98681.22;5023266;28;20019;-78
2022/01/09 00:42:26;;;;;;;11.77;5.22;;;;;;;0.37;97.19;98684.66;5040160;28;20156;-78
2022/01/09 00:44:51;;;;;;;9.23;4.15;;;;;;;0.39;97.16;98711.59;5020286;28;20218;-79
2022/01/09 00:47:16;;;;;;;11.43;5.43;;;;;;;0.25;97.37;98671.91;5030605;28;20033;-79
2022/01/09 00:49:42;;;;;;;8.87;4.73;;;;;;;0.35;97.25;98678.78;5043579;28;20307;-80
2022/01/09 00:52:07;;;;;;;13.75;4.22;;;;;;;0.34;97.31;98669.22;5023683;28;20513;-79
2022/01/09 00:54:33;;;;;;;15.38;5.53;;;;;;;0.35;97.91;98676.16;5042548;28;20048;-78
2022/01/09 00:56:58;;;;;;;14.75;5.82;;;;;;;0.31;97.64;98669.53;5014599;28;20088;-78
2022/01/09 00:59:23;;;;;;;11.80;4.57;;;;;;;0.33;97.90;98675.47;5042539;28;20038;-79
2022/01/09 01:01:49;;;;;;;10.37;4.70;;;;;;;0.30;98.16;98667.03;5032502;28;20790;-78
2022/01/09 01:04:14;;;;;;;7.73;4.73;;;;;;;0.27;98.13;98665.53;5030662;28;20399;-78
2022/01/09 01:06:40;;;;;;;14.88;5.68;;;;;;;0.13;98.28;98639.78;5022082;28;20461;-78
2022/01/09 01:09:05;;;;;;;13.10;4.85;;;;;;;0.22;98.61;98667.78;5023345;28;20032;-78
2022/01/09 01:11:30;;;;;;;8.73;4.38;;;;;;;0.22;98.96;98683.53;5022129;28;20033;-78
2022/01/09 01:13:56;;;;;;;7.60;4.75;;;;;;;0.20;98.96;98674.97;5019678;28;20069;-78
2022/01/09 01:16:22;;;;;;;15.85;5.03;;;;;;;0.09;99.29;98651.56;5029598;28;20140;-78
2022/01/09 01:18:47;;;;;;;16.58;5.75;;;;;;;0.18;99.13;98677.72;5022312;28;20072;-80
2022/01/09 01:21:13;;;;;;;15.77;4.88;;;;;;;0.28;99.40;98692.59;5022762;28;20038;-79
2022/01/09 01:23:38;;;;;;;13.75;6.10;;;;;;;0.25;99.41;98692.91;5023210;28;20025;-79
2022/01/09 01:26:04;;;;;;;10.35;4.47;;;;;;;0.26;99.57;98691.91;5030024;28;20041;-77
2022/01/09 01:28:30;;;;;;;9.50;4.68;;;;;;;0.13;99.57;98673.91;5021273;28;20037;-76
2022/01/09 01:30:56;;;;;;;12.63;4.75;;;;;;;0.11;99.33;98668.81;5021562;28;20368;-76
2022/01/09 01:33:22;;;;;;;13.27;5.95;;;;;;;0.24;99.52;98686.84;5021468;28;20032;-76
2022/01/09 01:35:48;;;;;;;10.73;4.65;;;;;;;0.16;99.34;98674.47;5019487;28;20041;-77
2022/01/09 01:38:13;;;;;;;12.68;5.28;;;;;;;0.22;99.22;98683.53;5034495;28;20085;-76
2022/01/09 01:40:40;;;;;;;8.38;4.78;;;;;;;0.24;99.20;98668.47;5017977;28;20038;-76
2022/01/09 01:43:06;;;;;;;13.07;4.88;;;;;;;0.26;99.25;98681.44;5037837;28;20061;-78
2022/01/09 01:45:31;;;;;;;10.93;4.45;;;;;;;0.34;98.77;98671.84;5015942;28;20097;-77
2022/01/09 01:48:05;;;;;;;13.93;4.80;;;;;;;0.38;98.70;98677.66;5028341;28;20133;-77
2022/01/09 01:50:35;;;;;;;9.68;5.10;;;;;;;0.36;98.59;98662.03;5038620;28;20287;-76
2022/01/09 01:53:01;;;;;;;9.88;4.90;;;;;;;0.36;98.43;98655.97;5020918;28;20037;-76
2022/01/09 01:55:28;;;;;;;11.35;6.50;;;;;;;0.37;98.08;98647.09;5020976;28;20112;-76
2022/01/09 01:57:54;;;;;;;7.13;3.85;;;;;;;0.37;98.08;98647.91;5028897;28;20037;-77
2022/01/09 02:00:20;;;;;;;11.97;5.87;;;;;;;0.38;98.26;98636.47;5026192;28;20038;-77
2022/01/09 02:02:46;;;;;;;7.90;5.15;;;;;;;0.34;97.67;98619.34;5042381;28;20279;-77
2022/01/09 02:05:11;;;;;;;9.65;4.65;;;;;;;0.41;97.56;98617.78;5034259;28;20113;-78
2022/01/09 02:07:38;;;;;;;9.70;3.83;;;;;;;0.35;97.54;98592.13;5026036;28;20045;-76
2022/01/09 02:10:08;;;;;;;6.57;4.20;;;;;;;0.41;97.23;98602.03;5039414;28;20030;-77
2022/01/09 02:12:37;;;;;;;10.93;4.95;;;;;;;0.45;97.12;98602.56;5028903;28;20048;-78
2022/01/09 02:15:22;;;;;;;7.00;4.28;;;;;;;0.56;97.04;98617.25;5024987;28;20403;-78
2022/01/09 02:17:47;;;;;;;13.20;4.00;;;;;;;0.51;96.87;98598.50;5020604;28;20385;-75
2022/01/09 02:20:12;;;;;;;8.47;4.03;;;;;;;0.58;96.80;98615.28;5022188;28;20102;-76
2022/01/09 02:22:38;;;;;;;7.22;4.05;;;;;;;0.53;96.84;98580.78;5020517;28;20136;-76
2022/01/09 02:25:06;;;;;;;6.53;3.97;;;;;;;0.48;96.93;98569.94;5033720;28;20042;-78
2022/01/09 02:27:31;;;;;;;12.48;4.50;;;;;;;0.40;97.06;98560.19;5033836;28;20025;-76
2022/01/09 02:29:57;;;;;;;9.33;4.77;;;;;;;0.47;97.36;98576.13;5036761;28;20075;-75
2022/01/09 02:32:22;;;;;;;12.60;6.95;;;;;;;0.47;97.68;98578.75;5020951;28;20052;-76
2022/01/09 02:34:50;;;;;;;12.23;5.27;;;;;;;0.49;98.01;98603.06;5020098;28;20033;-77
2022/01/09 02:37:15;;;;;;;11.50;4.75;;;;;;;0.40;98.00;98586.44;5017016;28;20037;-77
2022/01/09 02:39:40;;;;;;;7.72;4.13;;;;;;;0.47;98.09;98605.00;5009122;28;20041;-78
2022/01/09 02:42:17;;;;;;;8.70;4.20;;;;;;;0.47;98.46;98626.88;5024421;28;20855;-78
2022/01/09 02:44:42;;;;;;;8.43;4.65;;;;;;;0.47;98.36;98618.16;5042151;28;20292;-78
2022/01/09 02:47:08;;;;;;;8.70;4.77;;;;;;;0.52;98.64;98629.03;5020346;28;20041;-77
2022/01/09 02:49:33;;;;;;;10.37;5.53;;;;;;;0.49;98.82;98630.19;5020492;28;20083;-78
2022/01/09 02:51:59;;;;;;;9.55;5.00;;;;;;;0.44;98.84;98634.22;5028748;28;20827;-77
2022/01/09 02:57:08;;;;;;;8.13;4.65;;;;;;;0.50;99.52;98644.94;5018097;28;20113;-77
2022/01/09 02:59:34;;;;;;;19.00;5.40;;;;;;;0.40;99.62;98625.81;5040108;28;20732;-76
2022/01/09 03:01:59;;;;;;;10.63;5.67;;;;;;;0.32;99.96;98621.28;5033725;28;20033;-77
2022/01/09 03:04:25;;;;;;;10.48;4.95;;;;;;;0.35;100.00;98642.00;5016672;28;20038;-77
2022/01/09 03:06:50;;;;;;;14.30;5.03;;;;;;;0.34;100.00;98645.59;5018420;28;20034;-77
2022/01/09 03:09:15;;;;;;;6.97;4.45;;;;;;;0.33;100.00;98630.84;5020155;28;20041;-77
2022/01/09 03:11:41;;;;;;;7.73;4.23;;;;;;;0.38;99.89;98646.97;5019331;28;20206;-77
2022/01/09 03:14:07;;;;;;;6.38;4.07;;;;;;;0.44;99.82;98634.22;5033222;28;20335;-77
2022/01/09 03:16:33;;;;;;;12.48;4.78;;;;;;;0.39;99.63;98630.22;5033122;28;20563;-77
2022/01/09 03:18:59;;;;;;;;;;;;;;;0.47;99.71;98634.75;5044551;28;20039;-76
2022/01/09 03:21:24;;;;;;;8.73;4.75;;;;;;;0.46;99.57;98627.00;5019625;28;19931;-80
2022/01/09 03:23:49;;;;;;;10.30;4.53;;;;;;;0.51;99.41;98630.81;5011360;28;20061;-78
2022/01/09 03:26:15;;;;;;;7.53;4.47;;;;;;;0.46;98.83;98614.69;5036353;28;20037;-77
2022/01/09 03:28:40;;;;;;;14.00;4.57;;;;;;;0.39;99.43;98590.03;5035896;28;20465;-77
2022/01/09 03:31:05;;;;;;;9.50;4.27;;;;;;;0.37;99.58;98598.03;5018084;28;20041;-76
2022/01/09 03:33:31;;;;;;;10.63;5.37;;;;;;;0.36;99.84;98604.28;5016464;28;20284;-77
2022/01/09 03:35:56;;;;;;;7.43;4.40;;;;;;;0.28;99.97;98596.34;5020106;28;20025;-78
2022/01/09 03:38:22;;;;;;;12.43;5.77;;;;;;;0.23;100.00;98579.38;5044466;28;20041;-75
2022/01/09 03:40:47;;;;;;;14.60;6.43;;;;;;;0.27;100.00;98606.97;5011813;28;20029;-76
2022/01/09 03:43:12;;;;;;;8.57;5.03;;;;;;;0.25;100.00;98594.00;5020633;28;20650;-79
2022/01/09 03:45:38;;;;;;;8.47;4.83;;;;;;;0.23;100.00;98616.94;5018972;28;20291;-79
2022/01/09 03:48:03;;;;;;;9.27;5.47;;;;;;;0.12;100.00;98609.31;5036929;28;20040;-78
2022/01/09 03:50:29;;;;;;;13.80;5.57;;;;;;;0.15;100.00;98637.84;5006384;28;20299;-79
2022/01/09 03:52:54;;;;;;;10.57;5.03;;;;;;;0.18;100.00;98653.31;5019464;28;20073;-79
2022/01/09 03:55:22;;;;;;;9.77;5.40;;;;;;;0.24;100.00;98676.34;5018930;28;20291;-78
2022/01/09 03:57:48;;;;;;;13.52;6.10;;;;;;;0.14;100.00;98663.28;5029274;28;20300;-75
2022/01/09 04:00:17;;;;;;;11.20;4.93;;;;;;;0.11;100.00;98660.94;5044745;28;20045;-77
2022/01/09 04:02:45;;;;;;;10.13;5.47;;;;;;;0.08;100.00;98671.72;5028243;28;20430;-77
2022/01/09 04:05:11;;;;;;;;;;;;;;;0.14;100.00;98697.41;5023432;28;20022;-77
2022/01/09 04:07:37;;;;;;;12.82;5.47;;;;;;;0.16;100.00;98705.09;5041127;28;20815;-77
2022/01/09 04:10:04;;;;;;;10.80;5.38;;;;;;;0.18;100.00;98729.41;5020605;28;20036;-76
2022/01/09 04:12:34;;;;;;;8.45;5.05;;;;;;;0.14;100.00;98715.75;5020083;28;20124;-77
2022/01/09 04:15:04;;;;;;;9.43;5.82;;;;;;;0.28;100.00;98747.72;5024410;28;20038;-78
2022/01/09 04:20:01;;;;;;;7.80;5.20;;;;;;;0.14;100.00;98718.38;5022677;28;20040;-77
2022/01/09 04:22:26;;;;;;;12.40;5.30;;;;;;;0.25;100.00;98751.47;5024648;28;20793;-76
2022/01/09 04:24:51;;;;;;;12.10;5.40;;;;;;;0.23;100.00;98734.22;5027550;28;20139;-76
2022/01/09 04:27:17;;;;;;;6.40;4.40;;;;;;;0.21;100.00;98721.22;5022401;28;20291;-75
2022/01/09 04:29:42;;;;;;;13.93;5.83;;;;;;;0.15;100.00;98721.84;5033811;28;20331;-77
2022/01/09 04:32:08;;;;;;;11.70;5.13;;;;;;;0.06;100.00;98705.16;5024249;28;20276;-79
2022/01/09 04:34:33;;;;;;;10.82;5.05;;;;;;;0.11;100.00;98710.78;5044242;28;20133;-79
2022/01/09 04:37:00;;;;;;;9.90;5.30;;;;;;;0.13;100.00;98721.16;5010581;28;20108;-80
2022/01/09 04:39:26;;;;;;;;;;;;;;;0.17;100.00;98735.63;5027270;28;20116;-78
2022/01/09 04:41:51;;;;;;;16.35;5.70;;;;;;;0.01;100.00;98696.06;5044405;28;19945;-79
2022/01/09 04:44:16;;;;;;;10.23;5.33;;;;;;;0.05;100.00;98721.88;5019326;28;20026;-79
2022/01/09 04:46:48;;;;;;;11.17;4.73;;;;;;;0.07;100.00;98729.59;5020075;28;20797;-76
2022/01/09 04:49:14;;;;;;;9.35;5.32;;;;;;;0.18;100.00;98743.34;5017326;28;20322;-79
2022/01/09 04:51:39;;;;;;;17.95;6.05;;;;;;;0.10;100.00;98724.06;5028727;28;20493;-79
2022/01/09 04:54:05;;;;;;;15.93;5.63;;;;;;;0.19;100.00;98747.63;5027183;28;20049;-77
2022/01/09 04:56:31;;;;;;;21.42;7.10;;;;;;;0.26;100.00;98758.38;5037282;28;20037;-77
2022/01/09 04:58:56;;;;;;;;;;;;;;;0.21;100.00;98744.84;5020900;28;20932;-76
2022/01/09 05:01:22;;;;;;;11.93;6.25;;;;;;;0.16;100.00;98732.19;5019538;28;19917;-76
2022/01/09 05:03:47;;;;;;;16.10;5.73;;;;;;;0.20;100.00;98751.09;5018182;28;20488;-76
2022/01/09 05:06:12;;;;;;;9.63;5.53;;;;;;;0.13;100.00;98744.75;5018540;28;20471;-76
2022/01/09 05:08:38;;;;;;;11.27;5.38;;;;;;;0.22;100.00;98767.53;5018339;28;20049;-77
2022/01/09 05:11:03;;;;;;;15.60;5.90;;;;;;;0.21;100.00;98771.09;5017391;28;20597;-77
2022/01/09 05:13:28;;;;;;;11.52;5.63;;;;;;;-0.03;100.00;98732.25;5027081;28;20021;-76
2022/01/09 05:15:55;;;;;;;8.05;5.57;;;;;;;0.15;100.00;98761.19;5037566;28;20083;-77
2022/01/09 05:18:20;;;;;;;;;;;;;;;0.22;100.00;98778.03;5046598;28;20406;-77
2022/01/09 05:20:46;;;;;;;10.85;4.97;;;;;;;0.22;100.00;98787.69;5015055;28;19913;-79
2022/01/09 05:23:11;;;;;;;12.80;6.20;;;;;;;0.13;100.00;98765.75;5022683;28;20041;-79
2022/01/09 05:25:37;;;;;;;12.60;6.13;;;;;;;0.11;100.00;98775.56;5034388;28;20044;-76
2022/01/09 05:28:02;;;;;;;13.43;5.95;;;;;;;0.23;100.00;98805.09;5025054;28;20076;-78
2022/01/09 05:30:28;;;;;;;11.60;7.47;;;;;;;0.10;100.00;98777.38;5022743;28;20041;-79
2022/01/09 05:32:53;;;;;;;14.98;6.10;;;;;;;0.02;100.00;98776.44;5021411;28;20034;-78
2022/01/09 05:35:19;;;;;;;10.47;5.93;;;;;;;0.01;100.00;98791.34;5037672;28;20403;-79
2022/01/09 05:37:44;;;;;;;11.70;5.95;;;;;;;0.09;100.00;98798.50;5036798;28;20296;-77
2022/01/09 05:40:10;;;;;;;11.38;5.70;;;;;;;0.12;100.00;98809.56;5006444;28;20044;-76
2022/01/09 05:42:35;;;;;;;14.25;6.00;;;;;;;0.10;100.00;98808.03;5021528;28;20025;-78
2022/01/09 05:45:03;;;;;;;13.73;6.25;;;;;;;0.08;100.00;98797.69;5021586;28;20033;-79
2022/01/09 05:47:28;;;;;;;14.70;6.38;;;;;;;0.15;100.00;98818.94;5037633;28;20033;-79
2022/01/09 05:49:53;;;;;;;14.18;7.18;;;;;;;0.03;100.00;98799.09;5029006;28;20487;-76
2022/01/09 05:52:19;;;;;;;16.03;6.23;;;;;;;0.02;100.00;98789.53;5029195;28;20033;-79
2022/01/09 05:54:44;;;;;;;16.20;6.90;;;;;;;-0.25;100.00;98757.88;5020090;28;20045;-79
2022/01/09 05:57:10;;;;;;;26.40;9.85;;;;;;;-0.01;100.00;98812.47;5018988;28;20029;-78
2022/01/09 05:59:35;;;;;;;17.10;7.15;;;;;;;-0.06;100.00;98812.06;5028373;28;20120;-79
2022/01/09 06:02:02;;;;;;;18.25;8.20;;;;;;;-0.10;100.00;98810.69;5028933;28;20132;-78
2022/01/09 06:04:28;;;;;;;12.90;7.20;;;;;;;-0.14;100.00;98829.47;5038691;28;20057;-77
2022/01/09 06:06:54;;;;;;;14.10;7.22;;;;;;;-0.20;100.00;98830.06;5022696;28;20131;-78
2022/01/09 06:09:20;;;;;;;19.10;7.90;;;;;;;-0.13;100.00;98858.22;5028915;28;20049;-79
2022/01/09 06:11:46;;;;;;;15.68;7.72;;;;;;;-0.23;100.00;98854.78;5021136;28;20029;-79
2022/01/09 06:14:12;;;;;;;15.27;7.20;;;;;;;-0.06;100.00;98882.91;5021861;28;20398;-77
2022/01/09 06:16:37;;;;;;;14.80;7.13;;;;;;;-0.17;100.00;98879.59;5020660;28;20368;-79
2022/01/09 06:19:03;;;;;;;17.88;7.50;;;;;;;-0.23;100.00;98878.38;5019068;28;20521;-79
2022/01/09 06:21:28;;;;;;;13.57;7.20;;;;;;;-0.17;100.00;98897.97;5044160;28;20411;-78
2022/01/09 06:23:54;;;;;;;14.63;7.10;;;;;;;-0.15;100.00;98915.22;5032851;28;20040;-79
2022/01/09 06:26:20;;;;;;;;;;;;;;;-0.05;100.00;98933.56;5021414;28;20032;-78
2022/01/09 06:28:45;;;;;;;15.93;7.32;;;;;;;-0.08;100.00;98939.94;5016099;28;20357;-77
2022/01/09 06:31:11;;;;;;;18.80;8.38;;;;;;;-0.14;100.00;98940.50;5025370;28;20510;-77
2022/01/09 06:33:36;;;;;;;14.98;8.15;;;;;;;-0.19;100.00;98926.13;5020136;28;20064;-78
2022/01/09 06:36:02;;;;;;;17.27;7.95;;;;;;;-0.17;100.00;98937.31;5020756;28;20049;-77
2022/01/09 06:38:27;;;;;;;19.25;8.73;;;;;;;-0.23;100.00;98936.91;5021000;28;20041;-76
2022/01/09 06:40:52;;;;;;;21.67;9.38;;;;;;;-0.33;100.00;98927.38;5022484;28;20025;-79
2022/01/09 06:43:18;;;;;;;15.40;8.50;;;;;;;-0.31;100.00;98962.16;5025055;28;20026;-78
2022/01/09 06:45:43;;;;;;;17.03;8.87;;;;;;;-0.25;100.00;98969.47;5033887;28;20048;-78
2022/01/09 06:48:09;;;;;;;16.88;8.57;;;;;;;-0.22;100.00;98984.94;5037667;28;20747;-79
2022/01/09 06:50:34;;;;;;;16.38;8.43;;;;;;;-0.37;100.00;98981.06;5015765;28;20117;-75
2022/01/09 06:53:00;;;;;;;20.08;9.10;;;;;;;-0.37;100.00;98996.81;5028621;28;20474;-78
2022/01/09 06:55:25;;;;;;;18.63;9.70;;;;;;;-0.40;100.00;99004.91;5036823;28;20079;-80
2022/01/09 06:57:53;;;;;;;18.50;8.70;;;;;;;-0.41;100.00;99011.97;5033050;28;20992;-78
2022/01/09 07:00:19;;;;;;;19.20;9.43;;;;;;;-0.38;100.00;99029.22;5029403;28;20037;-79
2022/01/09 07:02:45;;;;;;;17.45;8.77;;;;;;;-0.35;100.00;99052.53;5026909;28;20026;-80
2022/01/09 07:05:11;;;;;;;24.20;11.20;;;;;;;-0.41;100.00;99050.47;5015500;28;20042;-77
2022/01/09 07:07:36;;;;;;;;;;;;;;;-0.45;100.00;99058.59;5016280;28;20208;-77
2022/01/09 07:10:03;;;;;;;21.42;10.30;;;;;;;-0.47;100.00;99073.66;5010829;28;20004;-78
2022/01/09 07:12:28;;;;;;;24.67;10.88;;;;;;;-0.41;100.00;99089.81;5043528;28;20033;-78
2022/01/09 07:14:54;;;;;;;20.07;9.13;;;;;;;-0.49;100.00;99083.44;5032633;28;20043;-79
2022/01/09 07:17:19;;;;;;;16.95;9.65;;;;;;;-0.55;100.00;99094.44;5005179;28;20025;-80
2022/01/09 07:19:44;;;;;;;24.17;11.32;;;;;;;-0.48;100.00;99106.06;5035060;28;20051;-79
2022/01/09 07:22:10;;;;;;;20.58;10.68;;;;;;;-0.50;100.00;99110.59;5038863;28;20042;-80
2022/01/09 07:24:35;;;;;;;18.02;10.00;;;;;;;-0.64;100.00;99098.66;5034732;28;20033;-79
2022/01/09 07:27:01;;;;;;;21.40;9.68;;;;;;;-0.52;100.00;99120.38;5027294;28;20045;-79
2022/01/09 07:29:26;;;;;;;18.23;10.32;;;;;;;-0.54;100.00;99111.84;5043644;28;20033;-78
2022/01/09 07:31:52;;;;;;;17.63;9.63;;;;;;;-0.50;100.00;99138.63;5011952;28;20029;-77
2022/01/09 07:34:21;;;;;;;19.02;10.02;;;;;;;-0.50;100.00;99149.09;5036180;28;20284;-79
2022/01/09 07:36:47;;;;;;;21.30;11.30;;;;;;;-0.54;100.00;99156.41;5028176;28;20048;-79
2022/01/09 07:39:12;;;;;;;;;;;;;;;-0.47;100.00;99170.66;5022946;28;20034;-79
2022/01/09 07:41:39;;;;;;;23.50;10.40;;;;;;;-0.47;100.00;99175.91;5033410;28;19972;-80
2022/01/09 07:44:05;;;;;;;24.88;9.73;;;;;;;-0.57;100.00;99169.75;5019347;28;20045;-79
2022/01/09 07:46:30;;;;;;;18.83;9.93;;;;;;;-0.56;100.00;99174.06;5019791;28;20025;-79
2022/01/09 07:48:56;;;;;;;25.37;9.97;;;;;;;-0.52;100.00;99191.16;5039691;28;20454;-79
2022/01/09 07:51:21;;;;;;;20.65;10.25;;;;;;;-0.55;100.00;99182.75;5020735;28;20288;-79
2022/01/09 07:53:46;;;;;;;20.07;10.63;;;;;;;-0.48;100.00;99207.47;5019155;28;20041;-78
2022/01/09 07:56:12;;;;;;;21.60;10.02;;;;;;;-0.57;100.00;99182.03;5032831;28;20308;-79
2022/01/09 07:58:38;;;;;;;22.02;10.77;;;;;;;-0.52;100.00;99208.69;5017656;28;20045;-78
2022/01/09 08:01:03;;;;;;;17.52;10.20;;;;;;;-0.54;100.00;99210.59;5021417;28;20033;-79
2022/01/09 08:03:29;;;;;;;19.77;10.20;;;;;;;-0.50;100.00;99219.88;5036032;28;20672;-78
2022/01/09 08:05:54;;;;;;;20.45;11.02;;;;;;;-0.56;100.00;99223.88;5033393;28;20091;-78
2022/01/09 08:08:19;;;;;;;25.03;11.40;;;;;;;-0.62;100.00;99223.53;5040602;28;20041;-79
2022/01/09 08:10:45;;;;;;;21.05;10.38;;;;;;;-0.46;100.00;99250.13;5040868;28;20295;-78
2022/01/09 08:13:10;;;;;;;22.10;11.15;;;;;;;-0.48;100.00;99255.50;5027640;28;20029;-77
2022/01/09 08:15:35;;;;;;;21.87;10.30;;;;;;;-0.40;100.00;99257.47;5019263;28;20799;-77
2022/01/09 08:18:01;;;;;;;23.40;11.70;;;;;;;-0.53;100.00;99243.75;5010019;28;21019;-78
2022/01/09 08:20:26;;;;;;;20.55;10.80;;;;;;;-0.52;100.00;99242.78;5042416;28;20037;-77
2022/01/09 08:22:52;;;;;;;17.80;10.25;;;;;;;-0.63;100.00;99235.81;5026542;28;20522;-77
2022/01/09 08:25:18;;;;;;;24.70;11.55;;;;;;;-0.49;100.00;99280.06;5035213;28;20044;-78
2022/01/09 08:27:45;;;;;;;17.52;10.27;;;;;;;-0.55;100.00;99269.25;5018582;28;20052;-77
2022/01/09 08:30:11;;;;;;;22.38;11.18;;;;;;;-0.49;100.00;99287.94;5012727;28;20493;-78
2022/01/09 08:32:38;;;;;;;18.45;10.68;;;;;;;-0.43;100.00;99281.34;5021613;28;20033;-78
2022/01/09 08:35:04;;;;;;;24.38;10.77;;;;;;;-0.46;100.00;99292.09;5024648;28;20438;-79
2022/01/09 08:37:30;;;;;;;22.20;11.48;;;;;;;-0.46;100.00;99276.38;5017656;28;20036;-78
2022/01/09 08:39:57;;;;;;;24.33;11.85;;;;;;;-0.46;100.00;99278.97;5033314;28;20026;-78
2022/01/09 08:42:22;;;;;;;21.23;12.13;;;;;;;-0.38;100.00;99296.69;5018281;28;20053;-77
2022/01/09 08:44:47;;;;;;;25.80;13.57;;;;;;;-0.48;100.00;99297.44;5017310;28;20063;-78
2022/01/09 08:47:13;;;;;;;29.35;14.20;;;;;;;-0.37;100.00;99311.47;5042135;28;20029;-78
2022/01/09 08:49:39;;;;;;;18.40;10.98;;;;;;;-0.50;100.00;99294.13;5019236;28;20045;-77
2022/01/09 08:52:05;;;;;;;22.92;11.23;;;;;;;-0.49;100.00;99294.97;5038094;28;20049;-77
2022/01/09 08:54:31;;;;;;;22.88;11.93;;;;;;;-0.47;100.00;99304.38;5042887;28;20044;-77
2022/01/09 08:56:57;;;;;;;26.00;13.55;;;;;;;-0.47;100.00;99317.50;5032929;28;20038;-76
2022/01/09 08:59:22;;;;;;;22.38;11.45;;;;;;;-0.43;100.00;99312.81;5019365;28;20038;-78
2022/01/09 09:01:48;;;;;;;20.83;12.02;;;;;;;-0.45;100.00;99307.69;5047666;28;20372;-77
2022/01/09 09:04:15;;;;;;;21.40;11.18;;;;;;;-0.46;100.00;99324.38;5041979;28;20046;-77
2022/01/09 09:06:41;;;;;;;23.13;13.23;;;;;;;-0.49;100.00;99326.44;5038066;28;20423;-78
2022/01/09 09:09:07;;;;;;;25.05;12.73;;;;;;;-0.42;100.00;99340.72;5038895;28;20032;-77
2022/01/09 09:11:33;;;;;;;21.27;11.93;;;;;;;-0.42;100.00;99353.81;5035493;28;20034;-75
2022/01/09 09:13:58;;;;;;;19.10;10.52;;;;;;;-0.43;100.00;99345.09;5037593;28;20045;-77
2022/01/09 09:16:24;;;;;;;17.67;9.95;;;;;;;-0.33;100.00;99347.81;5022987;28;20044;-78
2022/01/09 09:18:50;;;;;;;26.83;12.32;;;;;;;-0.26;100.00;99369.94;5020472;28;20037;-78
2022/01/09 09:21:16;;;;;;;25.45;11.30;;;;;;;-0.26;100.00;99361.22;5035566;28;20034;-77
2022/01/09 09:23:42;;;;;;;21.60;11.13;;;;;;;-0.14;100.00;99383.84;5021103;28;20037;-76
2022/01/09 09:26:08;;;;;;;25.08;11.30;;;;;;;-0.23;100.00;99356.56;5020684;28;20044;-78
2022/01/09 09:28:34;;;;;;;21.85;11.00;;;;;;;-0.14;100.00;99367.25;5025115;28;20037;-78
2022/01/09 09:30:59;;;;;;;20.83;10.97;;;;;;;-0.25;100.00;99352.41;5038628;28;20390;-76
2022/01/09 09:33:24;;;;;;;23.85;11.35;;;;;;;-0.19;100.00;99357.13;5027810;28;20083;-78
2022/01/09 09:35:52;;;;;;;23.75;12.57;;;;;;;-0.16;100.00;99367.41;5022135;28;20483;-78
2022/01/09 09:38:17;;;;;;;22.58;11.70;;;;;;;-0.20;100.00;99360.72;5025611;28;20068;-79
2022/01/09 09:40:42;;;;;;;24.08;12.55;;;;;;;-0.17;100.00;99368.34;5030143;28;20057;-78
2022/01/09 09:43:08;;;;;;;21.92;11.63;;;;;;;-0.09;100.00;99383.47;5042770;28;20045;-78
2022/01/09 09:45:33;;;;;;;23.50;11.57;;;;;;;0.06;100.00;99391.84;5038831;28;20372;-78
2022/01/09 09:47:59;;;;;;;20.50;11.70;;;;;;;-0.01;100.00;99379.22;5036995;28;20619;-79
2022/01/09 09:50:24;;;;;;;21.55;11.73;;;;;;;-0.02;100.00;99361.81;5046443;28;20041;-78
2022/01/09 09:52:50;;;;;;;20.95;11.45;;;;;;;0.07;100.00;99383.00;5038068;28;20018;-79
2022/01/09 09:55:18;;;;;;;24.92;13.23;;;;;;;0.06;100.00;99365.59;5024765;28;20095;-79
2022/01/09 09:57:46;;;;;;;22.58;11.73;;;;;;;0.12;100.00;99392.16;5032571;28;20045;-78
2022/01/09 10:00:14;;;;;;;22.33;11.18;;;;;;;0.16;100.00;99369.94;5038305;28;20033;-78
2022/01/09 10:02:42;;;;;;;23.02;11.98;;;;;;;0.08;100.00;99359.25;5037582;28;20037;-77
2022/01/09 10:05:08;;;;;;;24.50;11.65;;;;;;;0.13;100.00;99379.88;5020815;28;20044;-78
2022/01/09 10:07:34;;;;;;;;;;;;;;;0.13;100.00;99379.88;5022907;28;20111;-78
2022/01/09 10:10:09;;;;;;;20.40;11.73;;;;;;;0.25;100.00;99399.81;5023988;28;19913;-77
2022/01/09 10:12:34;;;;;;;26.55;13.23;;;;;;;0.33;100.00;99397.41;5045914;28;20048;-79
2022/01/09 10:15:03;;;;;;;29.48;12.57;;;;;;;0.16;100.00;99367.31;5020372;28;20025;-79
2022/01/09 10:17:28;;;;;;;20.98;11.65;;;;;;;0.25;100.00;99370.13;5021266;28;20428;-80
2022/01/09 10:19:58;;;;;;;21.15;12.48;;;;;;;0.43;100.00;99379.06;5028024;28;20080;-78
2022/01/09 10:22:36;;;;;;;21.55;11.55;;;;;;;0.38;100.00;99355.81;5028214;28;20434;-78
2022/01/09 10:25:37;;;;;;;21.08;10.52;;;;;;;0.31;100.00;99349.44;5033311;28;20037;-78
2022/01/09 10:28:07;;;;;;;21.90;11.25;;;;;;;0.35;100.00;99356.09;5007849;28;20073;-79
2022/01/09 10:30:46;;;;;;;20.08;11.18;;;;;;;0.32;100.00;99345.00;5027718;28;20034;-79
2022/01/09 10:33:16;;;;;;;21.50;11.20;;;;;;;0.24;100.00;99335.16;5045965;28;20056;-77
2022/01/09 10:35:44;;;;;;;21.33;11.18;;;;;;;0.33;100.00;99352.75;5030079;28;20037;-77
2022/01/09 10:38:27;;;;;;;18.73;11.05;;;;;;;0.37;100.00;99354.13;5020932;28;20032;-77
2022/01/09 10:41:03;;;;;;;24.73;13.55;;;;;;;0.30;100.00;99336.44;5037262;28;20487;-77
2022/01/09 10:43:37;;;;;;;20.65;12.18;;;;;;;0.35;100.00;99356.09;5028382;28;20083;-78
2022/01/09 10:46:03;;;;;;;21.92;13.88;;;;;;;0.22;100.00;99334.47;5041955;28;20483;-79
2022/01/09 10:48:32;;;;;;;27.02;13.07;;;;;;;0.25;100.00;99339.44;5034385;28;20066;-77
2022/01/09 10:50:58;;;;;;;20.00;12.27;;;;;;;0.17;100.00;99328.78;5029224;28;20125;-78
2022/01/09 10:53:31;;;;;;;25.00;11.77;;;;;;;0.30;100.00;99374.00;5039482;28;20041;-79
2022/01/09 10:56:21;;;;;;;23.88;12.68;;;;;;;0.38;100.00;99383.88;5045175;28;20049;-78
2022/01/09 10:58:50;;;;;;;26.70;14.52;;;;;;;0.37;100.00;99385.66;5018908;28;20044;-76
2022/01/09 11:01:20;;;;;;;24.55;13.73;;;;;;;0.36;100.00;99384.00;5038182;28;20153;-78
2022/01/09 11:04:06;;;;;;;22.42;12.07;;;;;;;0.45;100.00;99399.94;5019958;28;20033;-79
2022/01/09 11:06:34;;;;;;;22.48;12.73;;;;;;;0.51;100.00;99397.59;5041783;28;20095;-79
2022/01/09 11:09:05;;;;;;;26.98;13.05;;;;;;;0.34;100.00;99358.84;5027403;28;20031;-78
2022/01/09 11:14:00;;;;;;;23.05;12.07;;;;;;;0.28;100.00;99370.69;5020969;28;20120;-78
2022/01/09 11:16:33;;;;;;;22.55;12.18;;;;;;;0.34;100.00;99396.41;5036452;28;20025;-78
2022/01/09 11:19:12;;;;;;;24.08;13.13;;;;;;;0.34;100.00;99395.59;5030955;28;20038;-79
2022/01/09 11:21:43;;;;;;;25.85;12.98;;;;;;;0.37;100.00;99419.78;5018756;28;20022;-78
2022/01/09 11:24:28;;;;;;;24.27;12.32;;;;;;;0.39;100.00;99409.16;5019708;28;20033;-79
2022/01/09 11:27:05;;;;;;;25.77;12.93;;;;;;;0.52;100.00;99448.34;5017187;28;20120;-77
2022/01/09 11:30:09;;;;;;;21.10;11.93;;;;;;;0.61;100.00;99460.72;5000837;28;20040;-77
2022/01/09 11:33:13;;;;;;;23.95;13.43;;;;;;;0.44;100.00;99406.13;4968304;28;20504;-77